sensor_id;sensor_type;location;lat;lon;timestamp;pressure;altitude;pressure_sealevel;temperature;humidity
54910;BME280;63189;51.240;9.964;2022-12-08T00:01:37;97192.56;;;1.44;100.00
54910;BME280;63189;51.240;9.964;2022-12-08T00:04:03;97195.97;;;1.45;100.00
54910;BME280;63189;51.240;9.964;2022-12-08T00:06:39;97202.84;;;1.44;100.00
54910;BME280;63189;51.240;9.964;2022-12-08T00:11:53;97195.13;;;1.44;100.00
54910;BME280;63189;51.240;9.964;2022-12-08T00:14:21;97190.00;;;1.44;100.00
54910;BME280;63189;51.240;9.964;2022-12-08T00:16:47;97190.88;;;1.47;100.00
54910;BME280;63189;51.240;9.964;2022-12-08T00:19:12;97187.44;;;1.44;100.00
54910;BME280;63189;51.240;9.964;2022-12-08T00:21:38;97196.00;;;1.47;100.00
54910;BME280;63189;51.240;9.964;2022-12-08T00:24:03;97174.59;;;1.44;100.00
54910;BME280;63189;51.240;9.964;2022-12-08T00:26:28;97175.44;;;1.47;100.00
54910;BME280;63189;51.240;9.964;2022-12-08T00:28:54;97177.13;;;1.49;100.00
54910;BME280;63189;51.240;9.964;2022-12-08T00:31:19;97182.28;;;1.48;100.00
54910;BME280;63189;51.240;9.964;2022-12-08T00:33:44;97173.72;;;1.49;100.00
54910;BME280;63189;51.240;9.964;2022-12-08T00:36:11;97176.25;;;1.53;100.00
54910;BME280;63189;51.240;9.964;2022-12-08T00:38:38;97171.94;;;1.54;100.00
54910;BME280;63189;51.240;9.964;2022-12-08T00:41:21;97172.81;;;1.53;100.00
54910;BME280;63189;51.240;9.964;2022-12-08T00:44:08;97175.34;;;1.56;100.00
54910;BME280;63189;51.240;9.964;2022-12-08T00:46:34;97167.66;;;1.57;100.00
54910;BME280;63189;51.240;9.964;2022-12-08T00:48:59;97172.81;;;1.57;100.00
54910;BME280;63189;51.240;9.964;2022-12-08T00:51:25;97166.81;;;1.54;100.00
54910;BME280;63189;51.240;9.964;2022-12-08T00:53:50;97165.94;;;1.55;100.00
54910;BME280;63189;51.240;9.964;2022-12-08T00:56:15;97154.81;;;1.59;100.00
54910;BME280;63189;51.240;9.964;2022-12-08T00:58:41;97159.94;;;1.59;100.00
54910;BME280;63189;51.240;9.964;2022-12-08T01:01:10;97156.50;;;1.60;100.00
54910;BME280;63189;51.240;9.964;2022-12-08T01:03:36;97151.38;;;1.58;100.00
54910;BME280;63189;51.240;9.964;2022-12-08T01:06:05;97154.81;;;1.59;100.00
54910;BME280;63189;51.240;9.964;2022-12-08T01:08:30;97154.81;;;1.59;100.00
54910;BME280;63189;51.240;9.964;2022-12-08T01:10:56;97155.63;;;1.61;100.00
54910;BME280;63189;51.240;9.964;2022-12-08T01:13:27;97163.34;;;1.61;100.00
54910;BME280;63189;51.240;9.964;2022-12-08T01:15:52;97159.91;;;1.62;100.00
54910;BME280;63189;51.240;9.964;2022-12-08T01:18:17;97161.59;;;1.63;100.00
54910;BME280;63189;51.240;9.964;2022-12-08T01:20:43;97159.91;;;1.62;100.00
54910;BME280;63189;51.240;9.964;2022-12-08T01:23:08;97162.50;;;1.60;100.00
54910;BME280;63189;51.240;9.964;2022-12-08T01:25:33;97164.19;;;1.61;100.00
54910;BME280;63189;51.240;9.964;2022-12-08T01:28:00;97153.94;;;1.60;100.00
54910;BME280;63189;51.240;9.964;2022-12-08T01:30:25;97161.66;;;1.60;100.00
54910;BME280;63189;51.240;9.964;2022-12-08T01:32:51;97161.66;;;1.60;100.00
54910;BME280;63189;51.240;9.964;2022-12-08T01:35:16;97161.66;;;1.60;100.00
54910;BME280;63189;51.240;9.964;2022-12-08T01:37:41;97172.75;;;1.63;100.00
54910;BME280;63189;51.240;9.964;2022-12-08T01:40:07;97175.28;;;1.65;100.00
54910;BME280;63189;51.240;9.964;2022-12-08T01:42:32;97169.31;;;1.64;100.00
54910;BME280;63189;51.240;9.964;2022-12-08T01:45:01;97161.59;;;1.64;100.00
54910;BME280;63189;51.240;9.964;2022-12-08T01:47:35;97168.44;;;1.65;100.00
54910;BME280;63189;51.240;9.964;2022-12-08T01:50:03;97165.00;;;1.68;100.00
54910;BME280;63189;51.240;9.964;2022-12-08T01:52:36;97159.00;;;1.66;100.00
54910;BME280;63189;51.240;9.964;2022-12-08T01:55:09;97161.56;;;1.66;100.00
54910;BME280;63189;51.240;9.964;2022-12-08T01:57:41;97157.28;;;1.66;100.00
54910;BME280;63189;51.240;9.964;2022-12-08T02:00:11;97159.00;;;1.66;100.00
54910;BME280;63189;51.240;9.964;2022-12-08T02:02:48;97154.72;;;1.65;100.00
54910;BME280;63189;51.240;9.964;2022-12-08T02:05:15;97153.03;;;1.64;100.00
54910;BME280;63189;51.240;9.964;2022-12-08T02:07:42;97143.66;;;1.61;100.00
54910;BME280;63189;51.240;9.964;2022-12-08T02:10:08;97139.34;;;1.62;100.00
54910;BME280;63189;51.240;9.964;2022-12-08T02:12:50;97135.94;;;1.60;100.00
54910;BME280;63189;51.240;9.964;2022-12-08T02:15:18;97140.22;;;1.62;100.00
54910;BME280;63189;51.240;9.964;2022-12-08T02:17:57;97130.84;;;1.54;100.00
54910;BME280;63189;51.240;9.964;2022-12-08T02:26:43;97128.28;;;1.57;100.00
54910;BME280;63189;51.240;9.964;2022-12-08T02:30:10;97125.72;;;1.54;100.00
54910;BME280;63189;51.240;9.964;2022-12-08T02:32:50;97123.16;;;1.52;100.00
54910;BME280;63189;51.240;9.964;2022-12-08T02:36:04;97124.03;;;1.50;100.00
54910;BME280;63189;51.240;9.964;2022-12-08T02:41:38;97118.06;;;1.48;99.90
54910;BME280;63189;51.240;9.964;2022-12-08T02:44:28;97115.53;;;1.41;99.96
54910;BME280;63189;51.240;9.964;2022-12-08T02:47:15;97118.94;;;1.43;100.00
54910;BME280;63189;51.240;9.964;2022-12-08T02:49:42;97118.94;;;1.43;100.00
54910;BME280;63189;51.240;9.964;2022-12-08T02:54:38;97109.53;;;1.44;100.00
54910;BME280;63189;51.240;9.964;2022-12-08T03:02:41;97105.22;;;1.44;99.87
54910;BME280;63189;51.240;9.964;2022-12-08T03:05:32;97107.81;;;1.43;100.00
54910;BME280;63189;51.240;9.964;2022-12-08T03:13:47;97095.00;;;1.41;100.00
54910;BME280;63189;51.240;9.964;2022-12-08T03:16:17;97096.66;;;1.45;100.00
54910;BME280;63189;51.240;9.964;2022-12-08T03:18:47;97095.81;;;1.43;100.00
54910;BME280;63189;51.240;9.964;2022-12-08T03:21:17;97096.66;;;1.45;100.00
54910;BME280;63189;51.240;9.964;2022-12-08T03:23:45;97087.28;;;1.46;100.00
54910;BME280;63189;51.240;9.964;2022-12-08T03:26:28;97084.69;;;1.48;100.00
54910;BME280;63189;51.240;9.964;2022-12-08T03:28:55;97082.13;;;1.48;100.00
54910;BME280;63189;51.240;9.964;2022-12-08T03:31:24;97070.97;;;1.45;100.00
54910;BME280;63189;51.240;9.964;2022-12-08T03:33:51;97065.88;;;1.42;100.00
54910;BME280;63189;51.240;9.964;2022-12-08T03:36:18;97069.31;;;1.41;100.00
54910;BME280;63189;51.240;9.964;2022-12-08T03:38:45;97073.63;;;1.39;100.00
54910;BME280;63189;51.240;9.964;2022-12-08T03:41:11;97065.94;;;1.38;100.00
54910;BME280;63189;51.240;9.964;2022-12-08T03:43:50;97058.22;;;1.35;100.00
54910;BME280;63189;51.240;9.964;2022-12-08T03:46:17;97069.31;;;1.41;100.00
54910;BME280;63189;51.240;9.964;2022-12-08T03:48:43;97063.31;;;1.41;100.00
54910;BME280;63189;51.240;9.964;2022-12-08T03:51:08;97059.03;;;1.41;100.00
54910;BME280;63189;51.240;9.964;2022-12-08T03:53:34;97058.19;;;1.41;100.00
54910;BME280;63189;51.240;9.964;2022-12-08T03:55:59;97054.75;;;1.42;100.00
54910;BME280;63189;51.240;9.964;2022-12-08T03:58:24;97050.50;;;1.39;100.00
54910;BME280;63189;51.240;9.964;2022-12-08T04:00:50;97051.31;;;1.43;100.00
54910;BME280;63189;51.240;9.964;2022-12-08T04:03:15;97055.59;;;1.44;100.00
54910;BME280;63189;51.240;9.964;2022-12-08T04:05:41;97047.06;;;1.40;100.00
54910;BME280;63189;51.240;9.964;2022-12-08T04:08:06;97038.50;;;1.40;100.00
54910;BME280;63189;51.240;9.964;2022-12-08T04:10:31;97039.41;;;1.37;100.00
54910;BME280;63189;51.240;9.964;2022-12-08T04:12:56;97034.28;;;1.36;100.00
54910;BME280;63189;51.240;9.964;2022-12-08T04:15:22;97041.13;;;1.37;100.00
54910;BME280;63189;51.240;9.964;2022-12-08T04:17:47;97036.84;;;1.36;100.00
54910;BME280;63189;51.240;9.964;2022-12-08T04:20:13;97036.84;;;1.33;100.00
54910;BME280;63189;51.240;9.964;2022-12-08T04:22:38;97031.75;;;1.31;100.00
54910;BME280;63189;51.240;9.964;2022-12-08T04:25:04;97038.56;;;1.34;100.00
54910;BME280;63189;51.240;9.964;2022-12-08T04:27:29;97030.03;;;1.30;100.00
54910;BME280;63189;51.240;9.964;2022-12-08T04:29:54;97023.16;;;1.32;100.00
54910;BME280;63189;51.240;9.964;2022-12-08T04:32:20;97023.16;;;1.32;100.00
54910;BME280;63189;51.240;9.964;2022-12-08T04:34:45;97018.00;;;1.34;100.00
54910;BME280;63189;51.240;9.964;2022-12-08T04:37:10;97025.69;;;1.35;100.00
54910;BME280;63189;51.240;9.964;2022-12-08T04:39:36;97024.00;;;1.36;100.00
54910;BME280;63189;51.240;9.964;2022-12-08T04:42:01;97024.84;;;1.38;100.00
54910;BME280;63189;51.240;9.964;2022-12-08T04:44:26;97021.41;;;1.39;100.00
54910;BME280;63189;51.240;9.964;2022-12-08T04:46:52;97013.69;;;1.39;100.00
54910;BME280;63189;51.240;9.964;2022-12-08T04:49:17;97025.66;;;1.41;100.00
54910;BME280;63189;51.240;9.964;2022-12-08T04:51:42;97025.66;;;1.41;100.00
54910;BME280;63189;51.240;9.964;2022-12-08T04:54:08;97026.53;;;1.40;100.00
54910;BME280;63189;51.240;9.964;2022-12-08T04:56:33;97024.78;;;1.42;100.00
54910;BME280;63189;51.240;9.964;2022-12-08T04:58:58;97023.09;;;1.41;100.00
54910;BME280;63189;51.240;9.964;2022-12-08T05:01:23;97017.94;;;1.41;100.00
54910;BME280;63189;51.240;9.964;2022-12-08T05:03:49;97018.84;;;1.39;100.00
54910;BME280;63189;51.240;9.964;2022-12-08T05:06:14;97017.16;;;1.36;100.00
54910;BME280;63189;51.240;9.964;2022-12-08T05:08:41;97018.00;;;1.37;100.00
54910;BME280;63189;51.240;9.964;2022-12-08T05:11:08;97023.13;;;1.38;100.00
54910;BME280;63189;51.240;9.964;2022-12-08T05:13:34;97012.84;;;1.35;100.00
54910;BME280;63189;51.240;9.964;2022-12-08T05:16:09;97017.16;;;1.35;100.00
54910;BME280;63189;51.240;9.964;2022-12-08T05:18:34;97016.28;;;1.37;100.00
54910;BME280;63189;51.240;9.964;2022-12-08T05:21:01;97019.72;;;1.36;100.00
54910;BME280;63189;51.240;9.964;2022-12-08T05:23:27;97006.88;;;1.38;100.00
54910;BME280;63189;51.240;9.964;2022-12-08T05:25:52;97004.28;;;1.38;100.00
54910;BME280;63189;51.240;9.964;2022-12-08T05:28:18;97011.13;;;1.40;100.00
54910;BME280;63189;51.240;9.964;2022-12-08T05:30:43;97003.44;;;1.37;100.00
54910;BME280;63189;51.240;9.964;2022-12-08T05:33:08;97012.81;;;1.41;100.00
54910;BME280;63189;51.240;9.964;2022-12-08T05:35:33;97000.84;;;1.40;100.00
54910;BME280;63189;51.240;9.964;2022-12-08T05:37:59;97000.00;;;1.40;100.00
54910;BME280;63189;51.240;9.964;2022-12-08T05:40:24;97005.97;;;1.42;100.00
54910;BME280;63189;51.240;9.964;2022-12-08T05:42:49;96995.69;;;1.40;100.00
54910;BME280;63189;51.240;9.964;2022-12-08T05:45:15;97002.56;;;1.40;100.00
54910;BME280;63189;51.240;9.964;2022-12-08T05:47:40;96998.28;;;1.39;100.00
54910;BME280;63189;51.240;9.964;2022-12-08T05:50:06;96996.59;;;1.38;100.00
54910;BME280;63189;51.240;9.964;2022-12-08T05:52:31;96993.19;;;1.36;100.00
54910;BME280;63189;51.240;9.964;2022-12-08T05:54:57;96989.75;;;1.38;100.00
54910;BME280;63189;51.240;9.964;2022-12-08T05:57:22;96987.19;;;1.37;100.00
54910;BME280;63189;51.240;9.964;2022-12-08T05:59:47;96992.31;;;1.38;100.00
54910;BME280;63189;51.240;9.964;2022-12-08T06:02:13;96988.91;;;1.33;100.00
54910;BME280;63189;51.240;9.964;2022-12-08T06:04:38;96983.75;;;1.38;100.00
54910;BME280;63189;51.240;9.964;2022-12-08T06:07:04;96981.19;;;1.36;100.00
54910;BME280;63189;51.240;9.964;2022-12-08T06:09:29;96981.22;;;1.33;100.00
54910;BME280;63189;51.240;9.964;2022-12-08T06:11:54;96976.06;;;1.36;100.00
54910;BME280;63189;51.240;9.964;2022-12-08T06:14:20;96979.44;;;1.40;100.00
54910;BME280;63189;51.240;9.964;2022-12-08T06:16:45;96978.56;;;1.41;100.00
54910;BME280;63189;51.240;9.964;2022-12-08T06:19:10;96976.91;;;1.38;100.00
54910;BME280;63189;51.240;9.964;2022-12-08T06:21:36;96978.56;;;1.42;100.00
54910;BME280;63189;51.240;9.964;2022-12-08T06:24:01;96978.56;;;1.42;100.00
54910;BME280;63189;51.240;9.964;2022-12-08T06:26:26;96985.38;;;1.43;100.00
54910;BME280;63189;51.240;9.964;2022-12-08T06:28:52;96980.28;;;1.40;100.00
54910;BME280;63189;51.240;9.964;2022-12-08T06:31:20;96982.84;;;1.42;100.00
54910;BME280;63189;51.240;9.964;2022-12-08T06:33:45;96979.41;;;1.43;100.00
54910;BME280;63189;51.240;9.964;2022-12-08T06:36:13;96976.84;;;1.41;100.00
54910;BME280;63189;51.240;9.964;2022-12-08T06:38:39;96972.56;;;1.42;100.00
54910;BME280;63189;51.240;9.964;2022-12-08T06:41:04;96960.66;;;1.33;100.00
54910;BME280;63189;51.240;9.964;2022-12-08T06:43:30;96964.00;;;1.43;100.00
54910;BME280;63189;51.240;9.964;2022-12-08T06:45:55;96972.53;;;1.48;100.00
54910;BME280;63189;51.240;9.964;2022-12-08T06:48:21;96975.94;;;1.45;100.00
54910;BME280;63189;51.240;9.964;2022-12-08T06:50:46;96973.38;;;1.49;100.00
54910;BME280;63189;51.240;9.964;2022-12-08T06:53:12;96972.50;;;1.50;100.00
54910;BME280;63189;51.240;9.964;2022-12-08T06:55:59;96974.22;;;1.49;100.00
54910;BME280;63189;51.240;9.964;2022-12-08T06:58:24;96974.25;;;1.46;100.00
54910;BME280;63189;51.240;9.964;2022-12-08T07:00:49;96977.69;;;1.47;100.00
54910;BME280;63189;51.240;9.964;2022-12-08T07:03:15;96972.50;;;1.50;100.00
54910;BME280;63189;51.240;9.964;2022-12-08T07:05:40;96972.50;;;1.50;100.00
54910;BME280;63189;51.240;9.964;2022-12-08T07:08:07;96973.31;;;1.52;100.00
54910;BME280;63189;51.240;9.964;2022-12-08T07:10:33;96983.59;;;1.52;100.00
54910;BME280;63189;51.240;9.964;2022-12-08T07:12:58;96980.22;;;1.45;100.00
54910;BME280;63189;51.240;9.964;2022-12-08T07:15:23;96986.22;;;1.47;100.00
54910;BME280;63189;51.240;9.964;2022-12-08T07:17:49;96987.09;;;1.44;100.00
54910;BME280;63189;51.240;9.964;2022-12-08T07:20:15;96976.81;;;1.48;100.00
54910;BME280;63189;51.240;9.964;2022-12-08T07:22:40;96968.28;;;1.42;100.00
54910;BME280;63189;51.240;9.964;2022-12-08T07:25:06;96969.09;;;1.44;100.00
54910;BME280;63189;51.240;9.964;2022-12-08T07:27:32;96966.59;;;1.41;100.00
54910;BME280;63189;51.240;9.964;2022-12-08T07:29:57;96963.13;;;1.44;100.00
54910;BME280;63189;51.240;9.964;2022-12-08T07:32:23;96969.97;;;1.43;100.00
54910;BME280;63189;51.240;9.964;2022-12-08T07:34:49;96959.78;;;1.37;100.00
54910;BME280;63189;51.240;9.964;2022-12-08T07:37:14;96965.78;;;1.35;100.00
54910;BME280;63189;51.240;9.964;2022-12-08T07:39:39;96957.22;;;1.34;100.00
54910;BME280;63189;51.240;9.964;2022-12-08T07:42:05;96971.75;;;1.38;100.00
54910;BME280;63189;51.240;9.964;2022-12-08T07:44:30;96970.06;;;1.37;100.00
54910;BME280;63189;51.240;9.964;2022-12-08T07:46:55;96969.16;;;1.41;100.00
54910;BME280;63189;51.240;9.964;2022-12-08T07:49:21;96973.44;;;1.41;100.00
54910;BME280;63189;51.240;9.964;2022-12-08T07:51:46;96976.00;;;1.42;100.00
54910;BME280;63189;51.240;9.964;2022-12-08T07:54:12;96970.84;;;1.42;100.00
54910;BME280;63189;51.240;9.964;2022-12-08T07:56:37;96973.41;;;1.44;100.00
54910;BME280;63189;51.240;9.964;2022-12-08T07:59:03;96973.47;;;1.39;100.00
54910;BME280;63189;51.240;9.964;2022-12-08T08:01:32;96968.31;;;1.39;100.00
54910;BME280;63189;51.240;9.964;2022-12-08T08:04:00;96977.69;;;1.43;100.00
54910;BME280;63189;51.240;9.964;2022-12-08T08:06:26;96968.25;;;1.45;100.00
54910;BME280;63189;51.240;9.964;2022-12-08T08:08:52;96968.25;;;1.45;100.00
54910;BME280;63189;51.240;9.964;2022-12-08T08:11:17;96961.41;;;1.44;100.00
54910;BME280;63189;51.240;9.964;2022-12-08T08:13:43;96959.69;;;1.47;100.00
54910;BME280;63189;51.240;9.964;2022-12-08T08:16:10;96968.19;;;1.52;100.00
54910;BME280;63189;51.240;9.964;2022-12-08T08:18:37;96971.59;;;1.54;100.00
54910;BME280;63189;51.240;9.964;2022-12-08T08:21:03;96957.00;;;1.56;100.00
54910;BME280;63189;51.240;9.964;2022-12-08T08:23:28;96955.25;;;1.61;100.00
54910;BME280;63189;51.240;9.964;2022-12-08T08:26:01;96967.19;;;1.63;100.00
54910;BME280;63189;51.240;9.964;2022-12-08T08:28:30;96964.59;;;1.65;100.00
54910;BME280;63189;51.240;9.964;2022-12-08T08:30:56;96963.75;;;1.67;100.00
54910;BME280;63189;51.240;9.964;2022-12-08T08:33:21;96965.47;;;1.64;100.00
54910;BME280;63189;51.240;9.964;2022-12-08T08:35:47;96971.50;;;1.63;100.00
54910;BME280;63189;51.240;9.964;2022-12-08T08:38:12;96964.66;;;1.62;100.00
54910;BME280;63189;51.240;9.964;2022-12-08T08:40:38;96968.88;;;1.67;100.00
54910;BME280;63189;51.240;9.964;2022-12-08T08:43:04;96973.97;;;1.70;100.00
54910;BME280;63189;51.240;9.964;2022-12-08T08:45:31;96963.72;;;1.69;100.00
54910;BME280;63189;51.240;9.964;2022-12-08T08:47:56;96971.47;;;1.67;100.00
54910;BME280;63189;51.240;9.964;2022-12-08T08:50:22;96970.59;;;1.68;100.00
54910;BME280;63189;51.240;9.964;2022-12-08T08:52:47;96962.84;;;1.70;100.00
54910;BME280;63189;51.240;9.964;2022-12-08T08:55:13;96972.25;;;1.72;100.00
54910;BME280;63189;51.240;9.964;2022-12-08T08:57:38;96954.19;;;1.77;100.00
54910;BME280;63189;51.240;9.964;2022-12-08T09:00:04;96960.19;;;1.79;100.00
54910;BME280;63189;51.240;9.964;2022-12-08T09:02:30;96966.16;;;1.81;100.00
54910;BME280;63189;51.240;9.964;2022-12-08T09:04:55;96965.41;;;1.71;100.00
54910;BME280;63189;51.240;9.964;2022-12-08T09:07:20;96968.81;;;1.72;100.00
54910;BME280;63189;51.240;9.964;2022-12-08T09:09:46;96963.69;;;1.72;100.00
54910;BME280;63189;51.240;9.964;2022-12-08T09:12:11;96966.22;;;1.73;100.00
54910;BME280;63189;51.240;9.964;2022-12-08T09:14:37;96967.94;;;1.74;100.00
54910;BME280;63189;51.240;9.964;2022-12-08T09:17:03;96959.38;;;1.74;100.00
54910;BME280;63189;51.240;9.964;2022-12-08T09:19:29;96967.06;;;1.74;100.00
54910;BME280;63189;51.240;9.964;2022-12-08T09:21:54;96962.75;;;1.76;100.00
54910;BME280;63189;51.240;9.964;2022-12-08T09:24:19;96961.88;;;1.80;100.00
54910;BME280;63189;51.240;9.964;2022-12-08T09:26:44;96955.00;;;1.82;100.00
54910;BME280;63189;51.240;9.964;2022-12-08T09:29:11;96948.97;;;1.83;100.00
54910;BME280;63189;51.240;9.964;2022-12-08T09:31:37;96954.94;;;1.85;100.00
54910;BME280;63189;51.240;9.964;2022-12-08T09:34:03;96955.81;;;1.84;100.00
54910;BME280;63189;51.240;9.964;2022-12-08T09:36:29;96956.66;;;1.85;100.00
54910;BME280;63189;51.240;9.964;2022-12-08T09:38:56;96957.53;;;1.85;100.00
54910;BME280;63189;51.240;9.964;2022-12-08T09:46:32;96953.13;;;1.93;100.00
54910;BME280;63189;51.240;9.964;2022-12-08T09:48:59;96944.59;;;1.93;100.00
54910;BME280;63189;51.240;9.964;2022-12-08T09:51:30;96934.22;;;1.97;100.00
54910;BME280;63189;51.240;9.964;2022-12-08T09:54:03;96939.34;;;2.00;100.00
54910;BME280;63189;51.240;9.964;2022-12-08T09:56:32;96935.97;;;1.95;100.00
54910;BME280;63189;51.240;9.964;2022-12-08T10:01:43;96927.41;;;1.95;100.00
54910;BME280;63189;51.240;9.964;2022-12-08T10:09:39;96926.56;;;1.94;100.00
54910;BME280;63189;51.240;9.964;2022-12-08T10:14:53;96920.56;;;1.95;100.00
54910;BME280;63189;51.240;9.964;2022-12-08T10:17:25;96919.66;;;1.99;100.00
54910;BME280;63189;51.240;9.964;2022-12-08T10:19:58;96923.88;;;2.03;100.00
54910;BME280;63189;51.240;9.964;2022-12-08T10:22:25;96904.19;;;2.02;100.00
54910;BME280;63189;51.240;9.964;2022-12-08T10:25:00;96912.69;;;2.06;100.00
54910;BME280;63189;51.240;9.964;2022-12-08T10:27:30;96913.56;;;2.05;100.00
54910;BME280;63189;51.240;9.964;2022-12-08T10:29:58;96916.13;;;2.07;100.00
54910;BME280;63189;51.240;9.964;2022-12-08T10:32:32;96906.69;;;2.07;100.00
54910;BME280;63189;51.240;9.964;2022-12-08T10:35:03;96908.34;;;2.11;100.00
54910;BME280;63189;51.240;9.964;2022-12-08T10:37:29;96912.59;;;2.14;100.00
54910;BME280;63189;51.240;9.964;2022-12-08T10:39:59;96908.34;;;2.11;100.00
54910;BME280;63189;51.240;9.964;2022-12-08T10:42:35;96902.25;;;2.17;100.00
54910;BME280;63189;51.240;9.964;2022-12-08T10:47:36;96896.22;;;2.21;100.00
54910;BME280;63189;51.240;9.964;2022-12-08T10:52:38;96899.56;;;2.26;100.00
54910;BME280;63189;51.240;9.964;2022-12-08T10:55:12;96901.28;;;2.25;100.00
54910;BME280;63189;51.240;9.964;2022-12-08T10:57:38;96898.69;;;2.27;100.00
54910;BME280;63189;51.240;9.964;2022-12-08T11:00:04;96896.06;;;2.31;100.00
54910;BME280;63189;51.240;9.964;2022-12-08T11:02:30;96895.97;;;2.36;100.00
54910;BME280;63189;51.240;9.964;2022-12-08T11:04:57;96897.66;;;2.39;100.00
54910;BME280;63189;51.240;9.964;2022-12-08T11:07:26;96897.66;;;2.37;100.00
54910;BME280;63189;51.240;9.964;2022-12-08T11:09:54;96893.41;;;2.36;100.00
54910;BME280;63189;51.240;9.964;2022-12-08T11:12:25;96895.94;;;2.38;100.00
54910;BME280;63189;51.240;9.964;2022-12-08T11:14:58;96893.50;;;2.30;100.00
54910;BME280;63189;51.240;9.964;2022-12-08T11:17:34;96887.38;;;2.37;100.00
54910;BME280;63189;51.240;9.964;2022-12-08T11:20:19;96893.38;;;2.38;100.00
54910;BME280;63189;51.240;9.964;2022-12-08T11:22:54;96885.63;;;2.39;100.00
54910;BME280;63189;51.240;9.964;2022-12-08T11:25:26;96876.22;;;2.38;100.00
54910;BME280;63189;51.240;9.964;2022-12-08T11:27:53;96883.13;;;2.36;100.00
54910;BME280;63189;51.240;9.964;2022-12-08T11:32:55;96880.53;;;2.38;100.00
54910;BME280;63189;51.240;9.964;2022-12-08T11:37:49;96871.81;;;2.46;100.00
54910;BME280;63189;51.240;9.964;2022-12-08T11:40:25;96881.34;;;2.41;100.00
54910;BME280;63189;51.240;9.964;2022-12-08T11:42:59;96875.44;;;2.35;100.00
54910;BME280;63189;51.240;9.964;2022-12-08T11:45:32;96869.44;;;2.34;100.00
54910;BME280;63189;51.240;9.964;2022-12-08T11:50:56;96866.88;;;2.34;100.00
54910;BME280;63189;51.240;9.964;2022-12-08T11:53:28;96867.63;;;2.39;100.00
54910;BME280;63189;51.240;9.964;2022-12-08T11:56:02;96867.59;;;2.42;100.00
54910;BME280;63189;51.240;9.964;2022-12-08T11:58:37;96865.94;;;2.38;100.00
54910;BME280;63189;51.240;9.964;2022-12-08T12:01:05;96870.16;;;2.42;100.00
54910;BME280;63189;51.240;9.964;2022-12-08T12:03:36;96861.59;;;2.43;100.00
54910;BME280;63189;51.240;9.964;2022-12-08T12:06:32;96867.50;;;2.47;100.00
54910;BME280;63189;51.240;9.964;2022-12-08T12:09:21;96876.97;;;2.46;100.00
54910;BME280;63189;51.240;9.964;2022-12-08T12:12:21;96861.59;;;2.43;100.00
54910;BME280;63189;51.240;9.964;2022-12-08T12:15:03;96863.25;;;2.46;100.00
54910;BME280;63189;51.240;9.964;2022-12-08T12:20:32;96860.81;;;2.37;100.00
54910;BME280;63189;51.240;9.964;2022-12-08T12:23:03;96850.56;;;2.35;100.00
54910;BME280;63189;51.240;9.964;2022-12-08T12:25:32;96846.31;;;2.33;100.00
54910;BME280;63189;51.240;9.964;2022-12-08T12:28:02;96850.56;;;2.35;100.00
54910;BME280;63189;51.240;9.964;2022-12-08T12:30:57;96845.41;;;2.35;100.00
54910;BME280;63189;51.240;9.964;2022-12-08T12:33:25;96848.78;;;2.40;100.00
54910;BME280;63189;51.240;9.964;2022-12-08T12:35:55;96844.44;;;2.42;100.00
54910;BME280;63189;51.240;9.964;2022-12-08T12:38:42;96841.81;;;2.45;100.00
54910;BME280;63189;51.240;9.964;2022-12-08T12:41:49;96852.94;;;2.47;100.00
54910;BME280;63189;51.240;9.964;2022-12-08T12:59:44;96864.00;;;2.52;100.00
54910;BME280;63189;51.240;9.964;2022-12-08T13:02:26;96852.97;;;2.46;100.00
54910;BME280;63189;51.240;9.964;2022-12-08T13:07:58;96854.66;;;2.47;100.00
54910;BME280;63189;51.240;9.964;2022-12-08T13:10:26;96856.41;;;2.45;100.00
54910;BME280;63189;51.240;9.964;2022-12-08T13:13:14;96855.50;;;2.47;100.00
54910;BME280;63189;51.240;9.964;2022-12-08T13:15:54;96854.78;;;2.38;100.00
54910;BME280;63189;51.240;9.964;2022-12-08T13:18:24;96855.75;;;2.32;100.00
54910;BME280;63189;51.240;9.964;2022-12-08T13:26:13;96848.16;;;2.24;100.00
54910;BME280;63189;51.240;9.964;2022-12-08T13:31:44;96842.16;;;2.24;100.00
54910;BME280;63189;51.240;9.964;2022-12-08T13:42:21;96838.78;;;2.22;100.00
54910;BME280;63189;51.240;9.964;2022-12-08T13:45:05;96840.47;;;2.23;100.00
54910;BME280;63189;51.240;9.964;2022-12-08T13:47:41;96855.91;;;2.23;100.00
54910;BME280;63189;51.240;9.964;2022-12-08T13:53:03;96843.91;;;2.22;100.00
54910;BME280;63189;51.240;9.964;2022-12-08T13:55:36;96849.00;;;2.25;100.00
54910;BME280;63189;51.240;9.964;2022-12-08T13:58:03;96845.59;;;2.23;100.00
54910;BME280;63189;51.240;9.964;2022-12-08T14:00:28;96847.31;;;2.24;100.00
54910;BME280;63189;51.240;9.964;2022-12-08T14:02:58;96854.09;;;2.29;100.00
54910;BME280;63189;51.240;9.964;2022-12-08T14:05:26;96856.66;;;2.29;100.00
54910;BME280;63189;51.240;9.964;2022-12-08T14:08:01;96859.22;;;2.29;100.00
54910;BME280;63189;51.240;9.964;2022-12-08T14:10:29;96857.50;;;2.28;100.00
54910;BME280;63189;51.240;9.964;2022-12-08T14:12:59;96865.22;;;2.28;100.00
54910;BME280;63189;51.240;9.964;2022-12-08T14:15:26;96863.50;;;2.30;100.00
54910;BME280;63189;51.240;9.964;2022-12-08T14:17:54;96860.94;;;2.30;100.00
54910;BME280;63189;51.240;9.964;2022-12-08T14:20:31;96860.06;;;2.31;100.00
54910;BME280;63189;51.240;9.964;2022-12-08T14:22:57;96862.69;;;2.27;100.00
54910;BME280;63189;51.240;9.964;2022-12-08T14:25:24;96868.72;;;2.24;100.00
54910;BME280;63189;51.240;9.964;2022-12-08T14:27:56;96859.38;;;2.20;100.00
54910;BME280;63189;51.240;9.964;2022-12-08T14:30:33;96869.66;;;2.20;100.00
54910;BME280;63189;51.240;9.964;2022-12-08T14:33:01;96869.69;;;2.17;100.00
54910;BME280;63189;51.240;9.964;2022-12-08T14:37:59;96865.50;;;2.12;100.00
54910;BME280;63189;51.240;9.964;2022-12-08T14:40:37;96865.50;;;2.12;100.00
54910;BME280;63189;51.240;9.964;2022-12-08T14:48:26;96873.25;;;2.09;100.00
54910;BME280;63189;51.240;9.964;2022-12-08T14:56:50;96868.97;;;2.09;100.00
54910;BME280;63189;51.240;9.964;2022-12-08T15:02:08;96868.13;;;2.09;100.00